createdAt,value
2019-02-15T00:02:11.339Z,18.07
2019-02-15T00:04:39.050Z,16.90
2019-02-15T00:07:06.645Z,16.53
2019-02-15T00:09:34.278Z,15.97
2019-02-15T00:12:01.891Z,16.27
2019-02-15T00:14:37.345Z,14.57
2019-02-15T00:17:05.240Z,13.80
2019-02-15T00:19:39.961Z,14.10
2019-02-15T00:22:08.039Z,14.00
2019-02-15T00:24:35.647Z,14.20
2019-02-15T00:27:04.273Z,15.73
2019-02-15T00:29:31.922Z,15.67
2019-02-15T00:31:59.521Z,15.03
2019-02-15T00:34:27.223Z,16.93
2019-02-15T00:36:55.187Z,17.27
2019-02-15T00:39:37.391Z,17.73
2019-02-15T00:44:42.645Z,17.57
2019-02-15T00:47:35.846Z,18.13
2019-02-15T00:50:32.403Z,18.20
2019-02-15T00:53:10.935Z,18.83
2019-02-15T00:56:00.631Z,17.83
2019-02-15T00:58:52.939Z,18.87
2019-02-15T01:01:55.729Z,18.50
2019-02-15T01:04:41.821Z,19.03
2019-02-15T01:07:40.589Z,19.37
2019-02-15T01:10:33.475Z,19.43
2019-02-15T01:13:05.618Z,19.53
2019-02-15T01:15:33.202Z,19.70
2019-02-15T01:18:00.804Z,21.03
2019-02-15T01:20:28.383Z,20.90
2019-02-15T01:22:56.025Z,21.23
2019-02-15T01:25:24.915Z,22.30
2019-02-15T01:28:06.962Z,22.50
2019-02-15T01:31:03.185Z,22.60
2019-02-15T01:34:08.701Z,21.83
2019-02-15T01:36:46.647Z,21.97
2019-02-15T01:39:40.380Z,23.87
2019-02-15T01:42:22.586Z,24.67
2019-02-15T01:45:10.141Z,26.87
2019-02-15T01:47:42.374Z,28.03
2019-02-15T01:50:09.966Z,27.47
2019-02-15T01:52:37.845Z,28.47
2019-02-15T01:55:06.551Z,28.90
2019-02-15T02:03:06.209Z,27.53
2019-02-15T02:05:34.135Z,25.97
2019-02-15T02:08:01.967Z,25.70
2019-02-15T02:10:30.185Z,25.20
2019-02-15T02:12:58.042Z,24.63
2019-02-15T02:15:25.968Z,24.43
2019-02-15T02:17:53.847Z,23.70
2019-02-15T02:20:21.825Z,22.20
2019-02-15T02:22:50.149Z,23.63
2019-02-15T02:25:18.564Z,23.50
2019-02-15T02:27:46.444Z,24.30
2019-02-15T02:30:14.315Z,25.47
2019-02-15T02:32:42.264Z,24.50
2019-02-15T02:35:10.473Z,26.93
2019-02-15T02:37:38.307Z,26.60
2019-02-15T02:40:06.819Z,25.60
2019-02-15T02:42:35.120Z,26.60
2019-02-15T02:45:03.146Z,25.63
2019-02-15T02:47:31.742Z,24.90
2019-02-15T02:49:59.616Z,25.30
2019-02-15T02:52:27.565Z,24.50
2019-02-15T02:54:55.375Z,26.03
2019-02-15T02:57:23.351Z,24.40
2019-02-15T02:59:51.907Z,26.47
2019-02-15T03:02:19.790Z,25.47
2019-02-15T03:04:47.768Z,25.07
2019-02-15T03:07:15.675Z,25.03
2019-02-15T03:09:43.567Z,26.37
2019-02-15T03:12:11.736Z,23.17
2019-02-15T03:14:39.584Z,25.27
2019-02-15T03:17:07.845Z,25.87
2019-02-15T03:19:35.763Z,24.80
2019-02-15T03:22:03.698Z,26.67
2019-02-15T03:24:31.726Z,27.57
2019-02-15T03:27:00.109Z,26.00
2019-02-15T03:29:28.354Z,26.63
2019-02-15T03:31:56.298Z,28.27
2019-02-15T03:34:25.677Z,26.93
2019-02-15T03:37:10.394Z,25.30
2019-02-15T03:39:44.401Z,24.57
2019-02-15T03:42:14.124Z,24.07
2019-02-15T03:44:42.206Z,22.97
2019-02-15T03:47:11.096Z,22.67
2019-02-15T03:49:39.579Z,21.43
2019-02-15T03:52:08.061Z,22.40
2019-02-15T03:54:35.928Z,21.47
2019-02-15T03:57:04.216Z,21.10
2019-02-15T03:59:32.222Z,19.93
2019-02-15T04:02:00.236Z,19.77
2019-02-15T04:04:28.631Z,19.73
2019-02-15T04:06:56.668Z,18.33
2019-02-15T04:09:24.713Z,18.07
2019-02-15T04:11:52.484Z,16.07
2019-02-15T04:14:20.377Z,14.83
2019-02-15T04:16:50.336Z,13.17
2019-02-15T04:19:19.492Z,12.07
2019-02-15T04:21:47.400Z,11.00
2019-02-15T04:24:15.182Z,9.37
2019-02-15T04:26:47.251Z,9.33
2019-02-15T04:29:15.508Z,8.77
2019-02-15T04:31:43.340Z,8.87
2019-02-15T04:34:19.435Z,8.87
2019-02-15T04:40:13.220Z,7.13
2019-02-15T04:42:50.024Z,7.30
2019-02-15T04:46:02.135Z,6.80
2019-02-15T04:48:47.986Z,7.87
2019-02-15T04:51:20.304Z,7.67
2019-02-15T04:54:13.440Z,8.17
2019-02-15T04:56:47.059Z,7.37
2019-02-15T04:59:20.714Z,7.17
2019-02-15T05:02:25.573Z,7.83
2019-02-15T05:05:21.597Z,8.20
2019-02-15T05:07:57.858Z,8.17
2019-02-15T05:10:36.601Z,7.63
2019-02-15T05:16:12.199Z,8.40
2019-02-15T05:18:43.350Z,8.60
2019-02-15T05:21:12.977Z,8.60
2019-02-15T05:23:41.252Z,8.30
2019-02-15T05:26:09.242Z,8.33
2019-02-15T05:28:37.384Z,7.33
2019-02-15T05:31:05.662Z,7.90
2019-02-15T05:33:35.542Z,7.43
2019-02-15T05:36:04.055Z,7.33
2019-02-15T05:38:33.036Z,8.77
2019-02-15T05:41:01.398Z,8.57
2019-02-15T05:43:29.371Z,9.00
2019-02-15T05:45:57.305Z,8.27
2019-02-15T05:48:25.671Z,7.70
2019-02-15T05:50:53.630Z,8.73
2019-02-15T05:53:21.595Z,8.50
2019-02-15T05:55:49.404Z,8.40
2019-02-15T05:58:17.576Z,9.40
2019-02-15T06:00:45.888Z,9.90
2019-02-15T06:03:13.963Z,9.57
2019-02-15T06:05:42.024Z,10.50
2019-02-15T06:08:10.009Z,9.73
2019-02-15T06:10:37.960Z,10.63
2019-02-15T06:13:06.535Z,10.90
2019-02-15T06:15:34.370Z,11.07
2019-02-15T06:18:02.278Z,11.73
2019-02-15T06:20:31.160Z,12.33
2019-02-15T06:22:59.176Z,12.13
2019-02-15T06:25:27.429Z,13.33
2019-02-15T06:27:55.364Z,14.93
2019-02-15T06:30:23.264Z,13.87
2019-02-15T06:32:51.079Z,15.50
2019-02-15T06:35:20.504Z,15.27
2019-02-15T06:37:49.246Z,14.77
2019-02-15T06:40:17.426Z,14.93
2019-02-15T06:42:45.922Z,13.90
2019-02-15T06:45:13.950Z,14.03
2019-02-15T06:47:41.971Z,14.50
2019-02-15T06:50:12.607Z,13.90
2019-02-15T06:52:40.663Z,15.10
2019-02-15T06:55:08.755Z,15.40
2019-02-15T06:57:36.743Z,16.17
2019-02-15T07:00:42.430Z,16.20
2019-02-15T07:03:35.689Z,16.23
2019-02-15T07:06:03.655Z,16.83
2019-02-15T07:08:32.333Z,17.40
2019-02-15T07:11:00.290Z,18.13
2019-02-15T07:13:28.173Z,17.27
2019-02-15T07:15:56.083Z,18.47
2019-02-15T07:18:24.464Z,17.47
2019-02-15T07:20:52.425Z,19.30
2019-02-15T07:23:20.279Z,19.90
2019-02-15T07:25:48.299Z,19.57
2019-02-15T07:28:16.765Z,18.93
2019-02-15T07:30:44.677Z,21.07
2019-02-15T07:33:12.705Z,19.27
2019-02-15T07:35:40.637Z,21.50
2019-02-15T07:38:08.665Z,20.83
2019-02-15T07:40:36.495Z,21.67
2019-02-15T07:43:04.484Z,22.20
2019-02-15T07:45:32.317Z,21.83
2019-02-15T07:48:00.218Z,21.23
2019-02-15T07:50:28.087Z,22.67
2019-02-15T07:52:55.987Z,23.20
2019-02-15T07:55:24.216Z,23.93
2019-02-15T07:57:52.503Z,24.30
2019-02-15T08:00:20.871Z,23.63
2019-02-15T08:02:48.725Z,20.50
2019-02-15T08:05:16.609Z,17.20
2019-02-15T08:07:44.469Z,16.13
2019-02-15T08:10:18.680Z,12.83
2019-02-15T08:12:47.043Z,12.13
2019-02-15T08:15:15.751Z,10.27
2019-02-15T08:17:43.656Z,8.93
2019-02-15T08:20:14.289Z,8.23
2019-02-15T08:22:42.228Z,8.37
2019-02-15T08:28:45.949Z,7.43
2019-02-15T08:31:13.631Z,7.27
2019-02-15T08:33:41.266Z,7.10
2019-02-15T08:36:08.787Z,7.13
2019-02-15T08:38:36.763Z,7.23
2019-02-15T08:41:04.360Z,7.47
2019-02-15T08:43:31.974Z,7.67
2019-02-15T08:46:01.745Z,7.10
2019-02-15T08:48:29.016Z,7.00
2019-02-15T08:50:56.621Z,8.30
2019-02-15T08:53:24.581Z,8.17
2019-02-15T08:55:52.150Z,9.20
2019-02-15T08:58:20.030Z,8.50
2019-02-15T09:00:47.561Z,8.93
2019-02-15T09:03:15.207Z,8.60
2019-02-15T09:05:43.209Z,7.97
2019-02-15T09:08:10.850Z,7.53
2019-02-15T09:10:38.481Z,8.27
2019-02-15T09:13:06.106Z,9.97
2019-02-15T09:15:33.751Z,12.50
2019-02-15T09:18:01.361Z,18.60
2019-02-15T09:20:28.955Z,22.07
2019-02-15T09:22:57.758Z,31.73
2019-02-15T09:25:25.357Z,33.67
2019-02-15T09:28:15.047Z,32.57
2019-02-15T09:30:44.283Z,23.03
2019-02-15T09:33:11.903Z,14.37
2019-02-15T09:35:39.912Z,9.03
2019-02-15T09:41:15.070Z,8.57
2019-02-15T09:43:42.806Z,7.07
2019-02-15T09:46:19.266Z,8.50
2019-02-15T09:48:40.269Z,8.07
2019-02-15T09:51:08.122Z,7.93
2019-02-15T09:53:36.157Z,8.73
2019-02-15T09:56:03.870Z,8.23
2019-02-15T09:58:31.948Z,8.87
2019-02-15T10:00:59.766Z,7.60
2019-02-15T10:03:27.451Z,8.17
2019-02-15T10:05:55.898Z,8.80
2019-02-15T10:08:23.599Z,8.90
2019-02-15T10:10:51.447Z,7.80
2019-02-15T10:13:19.326Z,8.77
2019-02-15T10:15:48.420Z,7.43
2019-02-15T10:18:16.284Z,7.77
2019-02-15T10:20:43.984Z,7.10
2019-02-15T10:23:11.732Z,8.93
2019-02-15T10:25:39.459Z,9.30
2019-02-15T10:28:07.658Z,8.73
2019-02-15T10:30:35.632Z,9.33
2019-02-15T10:33:03.684Z,8.67
2019-02-15T10:35:31.824Z,8.50
2019-02-15T10:37:59.609Z,8.80
2019-02-15T10:40:27.928Z,9.70
2019-02-15T10:42:55.928Z,8.30
2019-02-15T10:45:23.434Z,8.00
2019-02-15T10:47:51.061Z,8.97
2019-02-15T10:50:18.760Z,8.10
2019-02-15T10:55:32.361Z,7.33
2019-02-15T10:58:00.354Z,7.30
2019-02-15T11:03:15.634Z,6.90
2019-02-15T11:05:44.464Z,8.00
2019-02-15T11:08:12.330Z,6.93
2019-02-15T11:10:39.977Z,7.60
2019-02-15T11:13:07.566Z,8.53
2019-02-15T11:15:35.323Z,6.87
2019-02-15T11:18:03.234Z,7.10
2019-02-15T11:20:30.961Z,6.20
2019-02-15T11:22:58.618Z,6.30
2019-02-15T11:25:26.384Z,7.07
2019-02-15T11:27:53.978Z,6.63
2019-02-15T11:30:21.610Z,5.80
2019-02-15T11:32:49.347Z,5.90
2019-02-15T11:35:17.352Z,5.83
2019-02-15T11:37:45.057Z,4.90
2019-02-15T11:40:13.403Z,4.93
2019-02-15T11:42:41.100Z,5.95
2019-02-15T11:45:09.501Z,5.70
2019-02-15T11:47:37.422Z,5.57
2019-02-15T11:50:05.177Z,4.57
2019-02-15T11:52:32.878Z,4.67
2019-02-15T11:55:02.380Z,4.97
2019-02-15T11:57:30.094Z,5.00
2019-02-15T11:59:57.606Z,4.50
2019-02-15T12:02:25.304Z,4.67
2019-02-15T12:04:52.719Z,4.67
2019-02-15T12:07:20.311Z,5.00
2019-02-15T12:09:47.949Z,4.70
2019-02-15T12:12:15.582Z,4.83
2019-02-15T12:17:28.864Z,5.03
2019-02-15T12:19:56.445Z,5.20
2019-02-15T12:22:24.389Z,5.40
2019-02-15T12:24:51.993Z,5.60
2019-02-15T12:27:19.563Z,5.03
2019-02-15T12:29:47.115Z,5.37
2019-02-15T12:32:14.695Z,5.50
2019-02-15T12:34:42.510Z,5.73
2019-02-15T12:37:10.070Z,5.67
2019-02-15T12:39:37.535Z,5.35
2019-02-15T12:42:05.398Z,5.23
2019-02-15T12:44:32.987Z,5.67
2019-02-15T12:47:01.131Z,5.57
2019-02-15T12:49:28.655Z,5.45
2019-02-15T12:51:56.459Z,4.70
2019-02-15T12:54:23.907Z,4.90
2019-02-15T12:56:51.481Z,4.97
2019-02-15T12:59:19.054Z,5.33
2019-02-15T13:01:46.857Z,4.85
2019-02-15T13:04:14.433Z,5.40
2019-02-15T13:06:43.181Z,4.75
2019-02-15T13:09:10.857Z,5.60
2019-02-15T13:11:38.417Z,4.92
2019-02-15T13:14:05.966Z,8.03
2019-02-15T13:16:33.545Z,12.20
2019-02-15T13:19:01.121Z,8.67
2019-02-15T13:21:29.211Z,11.43
2019-02-15T13:23:56.991Z,6.15
2019-02-15T13:26:24.866Z,5.60
2019-02-15T13:28:53.337Z,6.67
2019-02-15T13:31:23.057Z,5.93
2019-02-15T13:33:50.777Z,5.25
2019-02-15T13:36:18.787Z,5.40
2019-02-15T13:38:48.058Z,5.42
2019-02-15T13:41:16.009Z,5.55
2019-02-15T13:43:44.493Z,5.45
2019-02-15T13:46:12.041Z,5.92
2019-02-15T13:48:40.219Z,6.62
2019-02-15T13:51:07.819Z,6.30
2019-02-15T13:53:35.937Z,5.97
2019-02-15T13:56:03.689Z,5.67
2019-02-15T13:58:31.765Z,5.15
2019-02-15T14:00:59.875Z,5.95
2019-02-15T14:03:27.752Z,6.40
2019-02-15T14:05:55.515Z,5.25
2019-02-15T14:08:23.633Z,5.47
2019-02-15T14:10:51.511Z,6.30
2019-02-15T14:13:19.156Z,6.03
2019-02-15T14:15:47.074Z,6.03
2019-02-15T14:18:15.406Z,6.00
2019-02-15T14:20:44.145Z,6.03
2019-02-15T14:23:13.906Z,6.50
2019-02-15T14:25:41.494Z,6.10
2019-02-15T14:28:09.487Z,6.87
2019-02-15T14:30:37.058Z,6.30
2019-02-15T14:33:04.953Z,5.58
2019-02-15T14:35:34.150Z,5.75
2019-02-15T14:38:02.333Z,5.67
2019-02-15T14:40:30.209Z,5.97
2019-02-15T14:42:58.018Z,5.83
2019-02-15T14:45:26.091Z,5.60
2019-02-15T14:47:55.357Z,6.67
2019-02-15T14:50:23.316Z,7.55
2019-02-15T14:52:51.398Z,6.00
2019-02-15T14:55:19.175Z,6.23
2019-02-15T14:57:47.078Z,6.00
2019-02-15T15:00:14.971Z,5.75
2019-02-15T15:02:43.190Z,6.17
2019-02-15T15:05:12.237Z,5.50
2019-02-15T15:07:39.998Z,5.97
2019-02-15T15:10:08.405Z,5.00
2019-02-15T15:12:36.522Z,6.05
2019-02-15T15:15:04.678Z,5.58
2019-02-15T15:17:32.477Z,5.50
2019-02-15T15:20:00.363Z,5.20
2019-02-15T15:22:28.204Z,5.33
2019-02-15T15:24:56.056Z,5.80
2019-02-15T15:27:23.762Z,5.20
2019-02-15T15:29:51.894Z,5.20
2019-02-15T15:32:19.714Z,6.00
2019-02-15T15:34:48.074Z,5.70
2019-02-15T15:37:16.770Z,4.85
2019-02-15T15:39:44.684Z,5.17
2019-02-15T15:42:12.806Z,5.20
2019-02-15T15:44:40.554Z,4.83
2019-02-15T15:47:08.567Z,4.92
2019-02-15T15:52:43.952Z,5.27
2019-02-15T15:58:06.291Z,5.42
2019-02-15T16:00:39.023Z,4.97
2019-02-15T16:03:04.820Z,5.07
2019-02-15T16:05:32.507Z,5.60
2019-02-15T16:08:00.406Z,5.73
2019-02-15T16:10:28.454Z,5.60
2019-02-15T16:12:56.176Z,5.67
2019-02-15T16:15:41.593Z,5.97
2019-02-15T16:18:09.442Z,5.33
2019-02-15T16:20:37.115Z,5.90
2019-02-15T16:23:05.902Z,5.43
2019-02-15T16:25:33.598Z,6.33
2019-02-15T16:28:03.639Z,6.10
2019-02-15T16:30:31.290Z,6.70
2019-02-15T16:32:59.074Z,5.67
2019-02-15T16:35:26.747Z,5.93
2019-02-15T16:37:54.496Z,6.23
2019-02-15T16:40:22.420Z,6.03
2019-02-15T16:42:50.200Z,5.67
2019-02-15T16:45:18.881Z,5.40
2019-02-15T16:47:47.157Z,5.80
2019-02-15T16:50:14.902Z,6.43
2019-02-15T16:52:42.647Z,6.67
2019-02-15T16:55:12.817Z,5.83
2019-02-15T16:57:40.030Z,6.43
2019-02-15T17:00:07.782Z,5.87
2019-02-15T17:02:35.391Z,7.07
2019-02-15T17:05:04.074Z,6.50
2019-02-15T17:07:31.982Z,6.17
2019-02-15T17:09:59.649Z,6.33
2019-02-15T17:12:27.300Z,6.27
2019-02-15T17:14:55.294Z,6.47
2019-02-15T17:17:23.206Z,6.50
2019-02-15T17:19:51.956Z,6.47
2019-02-15T17:22:19.613Z,6.43
2019-02-15T17:24:47.340Z,9.03
2019-02-15T17:27:15.005Z,7.97
2019-02-15T17:29:42.764Z,7.30
2019-02-15T17:32:10.407Z,7.70
2019-02-15T17:34:38.088Z,8.53
2019-02-15T17:37:06.639Z,8.47
2019-02-15T17:39:34.596Z,8.50
2019-02-15T17:42:02.546Z,7.83
2019-02-15T17:44:30.604Z,9.40
2019-02-15T17:46:58.344Z,9.17
2019-02-15T17:49:26.020Z,9.10
2019-02-15T17:51:54.060Z,8.77
2019-02-15T17:54:21.722Z,10.63
2019-02-15T17:59:32.055Z,9.97
2019-02-15T18:01:59.710Z,11.00
2019-02-15T18:04:28.654Z,11.73
2019-02-15T18:06:56.248Z,10.87
2019-02-15T18:09:23.903Z,9.80
2019-02-15T18:11:52.468Z,10.43
2019-02-15T18:14:20.091Z,10.13
2019-02-15T18:16:47.698Z,10.90
2019-02-15T18:19:15.365Z,10.70
2019-02-15T18:21:42.975Z,10.97
2019-02-15T18:24:10.602Z,11.20
2019-02-15T18:26:38.214Z,10.93
2019-02-15T18:29:06.163Z,11.27
2019-02-15T18:31:34.015Z,11.63
2019-02-15T18:34:01.541Z,13.37
2019-02-15T18:36:29.127Z,14.07
2019-02-15T18:38:56.711Z,14.80
2019-02-15T18:41:24.290Z,14.23
2019-02-15T18:43:52.131Z,14.43
2019-02-15T18:46:19.767Z,14.33
2019-02-15T18:48:47.343Z,15.10
2019-02-15T18:51:15.978Z,13.53
2019-02-15T18:53:44.121Z,16.30
2019-02-15T18:56:11.592Z,18.53
2019-02-15T18:58:39.484Z,18.57
2019-02-15T19:01:07.041Z,16.20
2019-02-15T19:03:34.603Z,14.90
2019-02-15T19:06:05.645Z,12.70
2019-02-15T19:11:19.270Z,11.37
2019-02-15T19:13:47.007Z,12.17
2019-02-15T19:16:14.744Z,12.60
2019-02-15T19:18:42.494Z,11.60
2019-02-15T19:21:10.155Z,11.50
2019-02-15T19:23:37.777Z,10.50
2019-02-15T19:26:05.573Z,10.30
2019-02-15T19:28:33.236Z,10.43
2019-02-15T19:31:00.990Z,9.93
2019-02-15T19:33:28.759Z,7.60
2019-02-15T19:35:56.683Z,8.93
2019-02-15T19:38:24.391Z,8.73
2019-02-15T19:40:52.031Z,7.53
2019-02-15T19:43:19.693Z,7.97
2019-02-15T19:45:48.467Z,9.15
2019-02-15T19:48:16.138Z,7.73
2019-02-15T19:50:43.779Z,7.63
2019-02-15T19:53:11.505Z,7.20
2019-02-15T19:55:39.161Z,7.50
2019-02-15T19:58:07.036Z,7.63
2019-02-15T20:00:35.679Z,8.97
2019-02-15T20:03:03.408Z,7.50
2019-02-15T20:05:31.108Z,7.80
2019-02-15T20:07:59.039Z,8.10
2019-02-15T20:10:55.558Z,7.77
2019-02-15T20:13:23.153Z,8.40
2019-02-15T20:21:20.855Z,7.87
2019-02-15T20:23:48.751Z,7.87
2019-02-15T20:26:16.353Z,7.60
2019-02-15T20:28:43.970Z,7.83
2019-02-15T20:31:11.567Z,8.67
2019-02-15T20:33:40.445Z,7.43
2019-02-15T20:36:07.973Z,8.27
2019-02-15T20:38:35.546Z,7.17
2019-02-15T20:41:03.390Z,7.13
2019-02-15T20:43:31.253Z,8.23
2019-02-15T20:45:58.782Z,7.80
2019-02-15T20:48:26.393Z,8.20
2019-02-15T20:50:53.943Z,8.37
2019-02-15T20:53:21.837Z,9.17
2019-02-15T20:55:49.433Z,9.37
2019-02-15T20:58:17.263Z,9.63
2019-02-15T21:00:45.111Z,8.83
2019-02-15T21:03:12.635Z,9.03
2019-02-15T21:05:41.480Z,10.83
2019-02-15T21:08:09.011Z,11.13
2019-02-15T21:10:36.877Z,9.93
2019-02-15T21:13:04.405Z,9.40
2019-02-15T21:15:32.013Z,9.87
2019-02-15T21:17:59.514Z,10.07
2019-02-15T21:20:27.831Z,10.47
2019-02-15T21:22:56.753Z,9.73
2019-02-15T21:31:03.884Z,11.00
2019-02-15T21:33:31.486Z,10.90
2019-02-15T21:35:59.025Z,10.20
2019-02-15T21:38:26.645Z,9.77
2019-02-15T21:40:54.481Z,9.60
2019-02-15T21:43:22.040Z,11.07
2019-02-15T21:45:49.592Z,10.57
2019-02-15T21:48:17.192Z,10.37
2019-02-15T21:50:44.610Z,11.03
2019-02-15T21:53:12.383Z,11.73
2019-02-15T21:55:39.964Z,12.57
2019-02-15T21:58:07.587Z,12.33
2019-02-15T22:00:35.135Z,11.70
2019-02-15T22:03:03.364Z,12.40
2019-02-15T22:05:30.939Z,12.77
2019-02-15T22:07:58.739Z,13.53
2019-02-15T22:10:26.341Z,12.77
2019-02-15T22:12:53.889Z,12.57
2019-02-15T22:15:21.476Z,14.23
2019-02-15T22:17:49.307Z,13.40
2019-02-15T22:20:25.924Z,12.77
2019-02-15T22:22:46.232Z,13.37
2019-02-15T22:25:13.777Z,12.43
2019-02-15T22:27:41.403Z,12.97
2019-02-15T22:30:09.896Z,13.17
2019-02-15T22:32:37.471Z,12.57
2019-02-15T22:35:05.292Z,12.90
2019-02-15T22:37:32.853Z,12.50
2019-02-15T22:40:19.912Z,12.53
2019-02-15T22:42:47.506Z,12.73
2019-02-15T22:45:15.347Z,12.53
2019-02-15T22:47:42.930Z,12.90
2019-02-15T22:50:10.492Z,12.70
2019-02-15T22:52:38.244Z,12.60
2019-02-15T22:55:06.093Z,13.43
2019-02-15T22:57:34.355Z,12.90
2019-02-15T23:00:02.968Z,13.70
2019-02-15T23:02:31.619Z,13.70
2019-02-15T23:04:59.485Z,13.20
2019-02-15T23:07:27.026Z,14.03
2019-02-15T23:09:55.604Z,13.47
2019-02-15T23:12:23.335Z,13.07
2019-02-15T23:14:50.958Z,13.27
2019-02-15T23:17:18.493Z,13.07
2019-02-15T23:19:46.086Z,13.27
2019-02-15T23:22:13.626Z,12.57
2019-02-15T23:24:41.767Z,13.83
2019-02-15T23:27:09.342Z,13.43
2019-02-15T23:29:36.878Z,13.83
2019-02-15T23:32:04.708Z,13.43
2019-02-15T23:34:32.230Z,14.50
2019-02-15T23:36:59.788Z,14.03
2019-02-15T23:39:27.339Z,15.20
2019-02-15T23:41:54.896Z,14.97
2019-02-15T23:44:22.364Z,13.23
2019-02-15T23:46:49.959Z,13.10
2019-02-15T23:49:17.550Z,13.97
2019-02-15T23:51:45.149Z,12.47
2019-02-15T23:54:12.735Z,13.17
2019-02-15T23:56:40.197Z,12.70
2019-02-15T23:59:07.755Z,13.40
